WIII Airport Information

Runway Information
Runway 07L Length 11812 ft width 197 ft
Elevation 29 ft Threshold 0 ft Heading 68
Runway 25R Length 11812 ft Width 197 ft
Elevation 21 ft Threshold 0 ft Heading 248
Runway 07R Length 12008 ft width 197 ft
Elevation 34 ft Threshold 0 ft Heading 68
Runway 25L Length 12008 ft Width 197 ft
Elevation 27 ft Threshold 0 ft Heading 248
Airport Frequencies
Type APP Name JAKARTA AP Frequency 119.75 MHZ
Type ARR Name JAKARTA AR Frequency 125.45 MHZ
Type ATIS Name ATIS Frequency 126.85 MHZ
Type CLD Name CLNC DEL Frequency 121.95 MHZ
Type FSS Name JAKARTA CE Frequency 129.7 MHZ
Type GND Name GND Frequency 121.6 MHZ
Type INFO Name PABELOKAN Frequency 129.8 MHZ
Type TWR Name TWR Frequency 118.75 MHZ
Airport Navaids
Type VOR-DME Name Cengkareng Frequency 113600 KHZ
Type VOR-DME Name Jakarta Frequency 114600 KHZ
Airport Weather Information & NOTAM
ADDS - METARS form results

(2220 UTC 18 February 2019)
Data provider http://aviationweather.gov/metar/data/
 
METAR text: WIII 182200Z 20002KT 5000 HZ SCT020 26/23 Q1012 NOSIG
Conditions at: WIII (SOEKARNO-HATTA I, ID) observed 2200 UTC 18 February 2019
Temperature: 26.0°C (79°F)
Dewpoint: 23.0°C (73°F) [RH = 84%]
Pressure (altimeter): 29.88 inches Hg (1012.0 mb)
Winds: from the SSW (200 degrees) at 2 MPH (2 knots; 1.0 m/s)
Visibility: 3 miles ( 5 km)
Ceiling: at least 12,000 feet AGL
Clouds: scattered clouds at 2000 feet AGL
Weather: HZ  (haze)

METAR text: WIII 182130Z 20003KT 5000 HZ FEW020 26/23 Q1011 NOSIG
Conditions at: WIII (SOEKARNO-HATTA I, ID) observed 2130 UTC 18 February 2019
Temperature: 26.0°C (79°F)
Dewpoint: 23.0°C (73°F) [RH = 84%]
Pressure (altimeter): 29.85 inches Hg (1011.0 mb)
Winds: from the SSW (200 degrees) at 3 MPH (3 knots; 1.5 m/s)
Visibility: 3 miles ( 5 km)
Ceiling: at least 12,000 feet AGL
Clouds: few clouds at 2000 feet AGL
Weather: HZ  (haze)

Forecast for: WIII (SOEKARNO-HATTA I, ID)
Text: TAF WIII 181700Z 1818/1924 VRB03KT 5000 HZ SCT020
Forecast period: 1800 UTC 18 February 2019 to 0100 UTC 19 February 2019
Forecast type: FROM: standard forecast or significant change
Winds: variable direction winds at 3 MPH (3 knots; 1.5 m/s)
Visibility: 3 miles (5 km)
Ceiling: at least 12,000 feet AGL
Clouds: scattered clouds at 2000 feet AGL
Weather: HZ  (haze)
Text: BECMG 1901/1903 32010KT 9999 NSW
Forecast period: 0100 UTC 19 February 2019 to 0000 UTC 20 February 2019
Forecast type: BECOMING: Conditions expected to become as follows by 0300 UTC 19 February 2019
Winds: from the NW (320 degrees) at 12 MPH (10 knots; 5.1 m/s)
Visibility: 6 or more miles 10+ km)
Ceiling: at least 12,000 feet AGL
Clouds: scattered clouds at 2000 feet AGL
Weather: NSW  (no significant weather)